createdAt,value
2023-02-09T00:00:50.446Z,45.80
2023-02-09T00:02:52.058Z,49.38
2023-02-09T00:04:53.694Z,49.10
2023-02-09T00:06:55.296Z,51.33
2023-02-09T00:08:58.408Z,47.05
2023-02-09T00:11:00.079Z,47.78
2023-02-09T00:13:20.482Z,50.72
2023-02-09T00:15:22.200Z,50.88
2023-02-09T00:17:24.028Z,53.83
2023-02-09T00:19:25.683Z,48.60
2023-02-09T00:21:27.237Z,43.70
2023-02-09T00:23:30.630Z,45.58
2023-02-09T00:25:32.245Z,49.20
2023-02-09T00:27:35.852Z,46.17
2023-02-09T00:29:37.590Z,47.65
2023-02-09T00:31:39.814Z,43.92
2023-02-09T00:33:41.609Z,47.47
2023-02-09T00:35:44.145Z,39.90
2023-02-09T00:37:45.817Z,38.92
2023-02-09T00:39:47.578Z,38.83
2023-02-09T00:42:07.032Z,44.97
2023-02-09T00:44:12.096Z,43.97
2023-02-09T00:46:13.773Z,43.67
2023-02-09T00:48:15.415Z,43.47
2023-02-09T00:50:17.005Z,45.60
2023-02-09T00:52:18.589Z,42.05
2023-02-09T00:54:20.265Z,39.10
2023-02-09T00:56:21.897Z,40.45
2023-02-09T00:58:23.569Z,42.97
2023-02-09T01:00:26.307Z,40.58
2023-02-09T01:02:27.935Z,39.72
2023-02-09T01:04:29.793Z,40.90
2023-02-09T01:06:31.771Z,41.08
2023-02-09T01:08:33.723Z,35.42
2023-02-09T01:10:35.494Z,38.05
2023-02-09T01:12:39.942Z,43.63
2023-02-09T01:14:41.926Z,41.40
2023-02-09T01:16:43.700Z,48.78
2023-02-09T01:18:45.440Z,42.97
2023-02-09T01:20:47.532Z,45.75
2023-02-09T01:22:50.559Z,49.25
2023-02-09T01:24:52.165Z,49.70
2023-02-09T01:26:53.817Z,46.90
2023-02-09T01:28:55.694Z,46.38
2023-02-09T01:30:57.692Z,46.17
2023-02-09T01:32:59.389Z,45.33
2023-02-09T01:35:01.146Z,44.33
2023-02-09T01:37:02.852Z,44.20
2023-02-09T01:39:05.040Z,44.97
2023-02-09T01:41:06.694Z,43.88
2023-02-09T01:43:11.523Z,42.30
2023-02-09T01:45:38.976Z,40.13
2023-02-09T01:47:48.634Z,43.13
2023-02-09T01:49:51.642Z,44.40
2023-02-09T01:52:16.006Z,39.40
2023-02-09T01:54:23.074Z,47.92
2023-02-09T01:56:29.735Z,44.33
2023-02-09T01:58:31.793Z,46.17
2023-02-09T02:00:33.497Z,50.95
2023-02-09T02:02:35.366Z,48.17
2023-02-09T02:04:38.044Z,41.08
2023-02-09T02:06:40.362Z,40.70
2023-02-09T02:08:48.378Z,30.27
2023-02-09T02:10:51.077Z,33.22
2023-02-09T02:12:54.499Z,26.20
2023-02-09T02:14:56.122Z,25.95
2023-02-09T02:17:24.056Z,28.00
2023-02-09T02:19:49.931Z,26.73
2023-02-09T02:22:14.578Z,27.08
2023-02-09T02:26:42.457Z,25.25
2023-02-09T02:29:01.937Z,22.30
2023-02-09T02:31:28.365Z,23.88
2023-02-09T02:33:39.279Z,23.15
2023-02-09T02:35:47.513Z,22.05
2023-02-09T02:38:02.814Z,19.90
2023-02-09T02:40:11.107Z,20.77
2023-02-09T02:42:52.153Z,17.27
2023-02-09T02:45:01.821Z,15.90
2023-02-09T02:47:06.770Z,17.17
2023-02-09T02:49:17.144Z,18.15
2023-02-09T02:51:31.852Z,17.40
2023-02-09T02:53:36.016Z,16.95
2023-02-09T02:55:38.481Z,15.68
2023-02-09T02:57:43.891Z,20.30
2023-02-09T02:59:53.130Z,15.45
2023-02-09T03:01:59.062Z,15.75
2023-02-09T03:04:01.726Z,17.17
2023-02-09T03:06:05.910Z,16.08
2023-02-09T03:08:07.468Z,15.15
2023-02-09T03:10:30.395Z,15.75
2023-02-09T03:12:37.919Z,16.00
2023-02-09T03:14:56.489Z,18.55
2023-02-09T03:17:12.324Z,15.63
2023-02-09T03:19:16.775Z,16.48
2023-02-09T03:21:38.067Z,14.57
2023-02-09T03:23:48.648Z,15.23
2023-02-09T03:25:52.557Z,14.98
2023-02-09T03:27:57.557Z,15.55
2023-02-09T03:30:01.270Z,15.50
2023-02-09T03:32:03.070Z,17.33
2023-02-09T03:34:05.546Z,15.50
2023-02-09T03:36:12.831Z,14.15
2023-02-09T03:38:14.467Z,13.35
2023-02-09T03:40:35.235Z,14.52
2023-02-09T03:42:36.889Z,17.30
2023-02-09T03:44:38.461Z,24.95
2023-02-09T03:46:40.136Z,25.42
2023-02-09T03:48:41.877Z,31.08
2023-02-09T03:50:43.785Z,35.72
2023-02-09T03:52:45.680Z,38.53
2023-02-09T03:54:47.905Z,34.90
2023-02-09T03:56:49.652Z,35.70
2023-02-09T03:58:52.107Z,40.25
2023-02-09T04:00:53.744Z,34.17
2023-02-09T04:02:56.408Z,32.65
2023-02-09T04:04:58.019Z,32.28
2023-02-09T04:07:00.078Z,39.30
2023-02-09T04:09:02.737Z,38.70
2023-02-09T04:11:04.477Z,40.67
2023-02-09T04:13:06.096Z,40.78
2023-02-09T04:15:08.027Z,37.05
2023-02-09T04:17:09.772Z,42.08
2023-02-09T04:19:12.396Z,42.95
2023-02-09T04:21:14.368Z,47.17
2023-02-09T04:23:16.039Z,42.47
2023-02-09T04:25:17.817Z,38.60
2023-02-09T04:27:19.381Z,40.80
2023-02-09T04:29:21.192Z,60.97
2023-02-09T04:31:23.152Z,35.70
2023-02-09T04:33:25.264Z,30.55
2023-02-09T04:35:26.874Z,38.42
2023-02-09T04:37:28.530Z,35.38
2023-02-09T04:39:30.318Z,33.92
2023-02-09T04:41:31.923Z,35.75
2023-02-09T04:43:33.750Z,32.90
2023-02-09T04:45:38.406Z,31.13
2023-02-09T04:47:40.056Z,22.90
2023-02-09T04:49:42.771Z,30.70
2023-02-09T04:51:44.380Z,28.65
2023-02-09T04:53:46.020Z,22.25
2023-02-09T04:55:48.005Z,17.20
2023-02-09T04:58:08.137Z,16.63
2023-02-09T05:00:10.534Z,19.15
2023-02-09T05:02:12.506Z,16.45
2023-02-09T05:04:14.068Z,16.48
2023-02-09T05:06:15.870Z,18.20
2023-02-09T05:08:17.491Z,17.25
2023-02-09T05:10:19.243Z,16.75
2023-02-09T05:12:20.928Z,17.63
2023-02-09T05:14:22.515Z,17.42
2023-02-09T05:16:24.150Z,20.17
2023-02-09T05:18:25.976Z,18.77
2023-02-09T05:20:27.596Z,19.08
2023-02-09T05:22:29.290Z,18.25
2023-02-09T05:24:31.021Z,16.77
2023-02-09T05:26:32.641Z,18.38
2023-02-09T05:28:34.378Z,19.10
2023-02-09T05:30:35.978Z,20.88
2023-02-09T05:32:37.603Z,17.75
2023-02-09T05:34:39.227Z,18.10
2023-02-09T05:36:40.801Z,25.85
2023-02-09T05:38:42.480Z,24.42
2023-02-09T05:40:45.218Z,24.10
2023-02-09T05:42:47.055Z,24.60
2023-02-09T05:44:50.301Z,21.67
2023-02-09T05:46:51.926Z,21.90
2023-02-09T05:48:53.583Z,21.40
2023-02-09T05:50:55.199Z,23.17
2023-02-09T05:53:00.122Z,21.13
2023-02-09T05:55:01.762Z,20.67
2023-02-09T05:57:03.651Z,23.95
2023-02-09T05:59:05.393Z,20.50
2023-02-09T06:01:06.952Z,24.13
2023-02-09T06:03:08.660Z,28.85
2023-02-09T06:05:10.549Z,36.55
2023-02-09T06:07:12.215Z,37.22
2023-02-09T06:09:13.935Z,35.35
2023-02-09T06:11:15.602Z,39.28
2023-02-09T06:13:17.230Z,32.15
2023-02-09T06:15:18.960Z,35.83
2023-02-09T06:17:20.615Z,35.47
2023-02-09T06:19:22.286Z,32.67
2023-02-09T06:21:24.149Z,41.47
2023-02-09T06:23:25.752Z,30.17
2023-02-09T06:25:27.441Z,33.90
2023-02-09T06:27:29.079Z,27.30
2023-02-09T06:29:31.484Z,24.17
2023-02-09T06:31:34.064Z,20.00
2023-02-09T06:33:37.127Z,17.65
2023-02-09T06:35:38.836Z,18.30
2023-02-09T06:37:40.419Z,16.83
2023-02-09T06:39:42.036Z,17.77
2023-02-09T06:41:43.690Z,18.15
2023-02-09T06:43:45.339Z,18.85
2023-02-09T06:45:46.968Z,17.65
2023-02-09T06:47:48.640Z,17.92
2023-02-09T06:49:50.217Z,15.93
2023-02-09T06:51:52.157Z,15.52
2023-02-09T06:53:54.235Z,15.88
2023-02-09T06:56:01.522Z,17.15
2023-02-09T06:58:03.771Z,16.42
2023-02-09T07:00:08.647Z,19.98
2023-02-09T07:02:10.969Z,23.58
2023-02-09T07:04:12.564Z,21.92
2023-02-09T07:06:16.705Z,18.55
2023-02-09T07:08:18.352Z,21.05
2023-02-09T07:10:20.138Z,19.50
2023-02-09T07:12:21.788Z,16.98
2023-02-09T07:14:23.397Z,21.02
2023-02-09T07:16:25.069Z,17.02
2023-02-09T07:18:27.678Z,17.13
2023-02-09T07:20:29.331Z,17.33
2023-02-09T07:22:31.055Z,17.08
2023-02-09T07:24:32.684Z,18.58
2023-02-09T07:26:34.327Z,18.00
2023-02-09T07:28:36.656Z,16.63
2023-02-09T07:30:41.200Z,14.13
2023-02-09T07:32:43.025Z,18.67
2023-02-09T07:34:44.635Z,12.52
2023-02-09T07:36:47.750Z,11.55
2023-02-09T07:38:49.800Z,12.85
2023-02-09T07:40:51.779Z,17.98
2023-02-09T07:42:53.438Z,13.40
2023-02-09T07:44:55.158Z,19.85
2023-02-09T07:46:56.816Z,16.48
2023-02-09T07:49:01.107Z,23.05
2023-02-09T07:51:03.735Z,16.92
2023-02-09T07:53:05.353Z,24.33
2023-02-09T07:55:07.422Z,20.27
2023-02-09T07:57:09.038Z,27.65
2023-02-09T07:59:11.464Z,31.40
2023-02-09T08:01:14.408Z,19.27
2023-02-09T08:03:18.552Z,19.17
2023-02-09T08:05:28.444Z,17.15
2023-02-09T08:07:30.394Z,19.45
2023-02-09T08:09:32.004Z,14.07
2023-02-09T08:11:46.055Z,18.65
2023-02-09T08:13:48.105Z,10.82
2023-02-09T08:15:54.585Z,14.75
2023-02-09T08:17:57.906Z,11.75
2023-02-09T08:20:03.548Z,12.88
2023-02-09T08:22:05.116Z,12.27
2023-02-09T08:24:08.093Z,9.98
2023-02-09T08:26:11.881Z,11.47
2023-02-09T08:28:13.493Z,15.60
2023-02-09T08:30:17.116Z,12.35
2023-02-09T08:32:18.751Z,9.02
2023-02-09T08:34:20.391Z,11.68
2023-02-09T08:36:22.065Z,11.27
2023-02-09T08:38:23.650Z,12.55
2023-02-09T08:40:25.271Z,12.13
2023-02-09T08:42:26.962Z,14.32
2023-02-09T08:44:28.545Z,9.23
2023-02-09T08:46:30.365Z,11.48
2023-02-09T08:48:35.673Z,10.82
2023-02-09T08:50:38.494Z,11.15
2023-02-09T08:52:40.580Z,17.13
2023-02-09T08:54:42.240Z,11.18
2023-02-09T08:56:44.302Z,10.52
2023-02-09T08:58:45.919Z,10.52
2023-02-09T09:00:47.590Z,12.68
2023-02-09T09:02:49.254Z,10.90
2023-02-09T09:04:50.894Z,13.73
2023-02-09T09:06:52.478Z,11.45
2023-02-09T09:08:54.170Z,11.98
2023-02-09T09:10:56.096Z,20.45
2023-02-09T09:12:58.907Z,11.25
2023-02-09T09:15:00.759Z,13.25
2023-02-09T09:17:02.392Z,11.18
2023-02-09T09:19:05.148Z,10.15
2023-02-09T09:21:06.848Z,8.68
2023-02-09T09:23:09.148Z,8.27
2023-02-09T09:25:10.929Z,10.18
2023-02-09T09:27:12.592Z,10.00
2023-02-09T09:29:14.159Z,8.38
2023-02-09T09:31:18.914Z,13.90
2023-02-09T09:33:20.543Z,11.48
2023-02-09T09:35:22.310Z,9.68
2023-02-09T09:37:25.319Z,11.25
2023-02-09T09:39:26.986Z,9.53
2023-02-09T09:41:29.940Z,8.68
2023-02-09T09:43:37.088Z,13.37
2023-02-09T09:45:39.038Z,9.95
2023-02-09T09:47:42.223Z,9.98
2023-02-09T09:49:44.121Z,8.30
2023-02-09T09:52:11.869Z,8.15
2023-02-09T09:54:25.241Z,11.68
2023-02-09T09:56:29.726Z,8.93
2023-02-09T09:58:33.125Z,10.20
2023-02-09T10:00:41.479Z,8.20
2023-02-09T10:02:44.490Z,9.93
2023-02-09T10:04:47.852Z,9.13
2023-02-09T10:06:58.337Z,10.32
2023-02-09T10:09:06.472Z,8.82
2023-02-09T10:11:16.715Z,9.50
2023-02-09T10:13:22.340Z,9.50
2023-02-09T10:15:33.543Z,9.13
2023-02-09T10:17:35.148Z,9.48
2023-02-09T10:19:36.772Z,9.38
2023-02-09T10:21:38.522Z,9.27
2023-02-09T10:23:46.019Z,8.80
2023-02-09T10:25:59.657Z,12.15
2023-02-09T10:28:06.372Z,8.77
2023-02-09T10:30:19.371Z,9.60
2023-02-09T10:32:23.736Z,9.20
2023-02-09T10:34:37.382Z,8.35
2023-02-09T10:37:18.006Z,8.48
2023-02-09T10:39:30.908Z,9.95
2023-02-09T10:41:34.134Z,8.85
2023-02-09T10:43:35.895Z,7.55
2023-02-09T10:45:39.922Z,12.80
2023-02-09T10:47:41.963Z,9.27
2023-02-09T10:49:43.547Z,8.55
2023-02-09T10:51:45.192Z,6.90
2023-02-09T10:53:55.976Z,11.05
2023-02-09T10:56:19.027Z,9.55
2023-02-09T10:58:27.014Z,10.32
2023-02-09T11:00:32.322Z,9.95
2023-02-09T11:02:36.203Z,8.10
2023-02-09T11:07:01.526Z,7.93
2023-02-09T11:09:12.861Z,7.30
2023-02-09T11:11:23.737Z,8.52
2023-02-09T11:13:26.424Z,7.97
2023-02-09T11:15:34.483Z,8.18
2023-02-09T11:17:46.464Z,10.05
2023-02-09T11:19:48.065Z,9.93
2023-02-09T11:22:11.064Z,10.40
2023-02-09T11:24:37.446Z,32.13
2023-02-09T11:26:39.535Z,14.68
2023-02-09T11:28:59.650Z,11.65
2023-02-09T11:31:39.820Z,9.10
2023-02-09T11:34:05.087Z,7.63
2023-02-09T11:36:42.030Z,8.60
2023-02-09T11:38:53.298Z,11.70
2023-02-09T11:40:56.712Z,11.75
2023-02-09T11:43:10.141Z,11.85
2023-02-09T11:45:19.647Z,7.27
2023-02-09T11:47:27.204Z,9.05
2023-02-09T11:49:30.228Z,10.65
2023-02-09T11:51:34.939Z,6.50
2023-02-09T11:53:45.692Z,8.50
2023-02-09T11:55:49.372Z,8.43
2023-02-09T11:57:56.949Z,8.93
2023-02-09T11:59:59.309Z,18.38
2023-02-09T12:02:38.296Z,12.85
2023-02-09T12:04:59.608Z,6.03
2023-02-09T12:07:03.621Z,11.85
2023-02-09T12:09:15.189Z,9.38
2023-02-09T12:11:48.118Z,9.65
2023-02-09T12:14:04.674Z,7.10
2023-02-09T12:16:18.591Z,6.78
2023-02-09T12:18:23.413Z,8.57
2023-02-09T12:20:44.511Z,7.20
2023-02-09T12:23:01.270Z,8.75
2023-02-09T12:25:11.769Z,8.30
2023-02-09T12:27:25.688Z,7.03
2023-02-09T12:29:30.102Z,9.57
2023-02-09T12:32:00.393Z,5.63
2023-02-09T12:34:10.479Z,9.60
2023-02-09T12:36:16.975Z,6.97
2023-02-09T12:38:19.687Z,9.25
2023-02-09T12:40:23.824Z,7.30
2023-02-09T12:42:30.732Z,15.35
2023-02-09T12:44:32.309Z,13.70
2023-02-09T12:46:47.717Z,8.25
2023-02-09T12:49:01.489Z,7.47
2023-02-09T12:51:03.132Z,10.98
2023-02-09T12:53:31.522Z,7.65
2023-02-09T12:55:33.264Z,10.60
2023-02-09T12:57:51.159Z,6.75
2023-02-09T12:59:52.748Z,9.50
2023-02-09T13:02:07.296Z,9.68
2023-02-09T13:04:09.122Z,10.02
2023-02-09T13:06:27.433Z,9.07
2023-02-09T13:08:35.103Z,14.02
2023-02-09T13:10:44.432Z,9.73
2023-02-09T13:12:50.880Z,9.75
2023-02-09T13:14:52.532Z,9.27
2023-02-09T13:17:09.300Z,8.65
2023-02-09T13:19:47.388Z,11.45
2023-02-09T13:22:19.806Z,10.13
2023-02-09T13:24:46.867Z,7.93
2023-02-09T13:26:51.542Z,8.25
2023-02-09T13:29:29.693Z,12.25
2023-02-09T13:31:36.748Z,11.48
2023-02-09T13:34:00.835Z,7.82
2023-02-09T13:36:48.711Z,6.63
2023-02-09T13:38:50.835Z,11.85
2023-02-09T13:40:52.584Z,6.40
2023-02-09T13:43:17.637Z,7.25
2023-02-09T13:45:19.731Z,7.45
2023-02-09T13:47:21.896Z,8.25
2023-02-09T13:49:25.425Z,11.40
2023-02-09T13:51:27.043Z,9.55
2023-02-09T13:53:30.266Z,7.40
2023-02-09T13:55:32.044Z,9.00
2023-02-09T13:57:38.729Z,7.93
2023-02-09T13:59:41.785Z,9.90
2023-02-09T14:01:46.338Z,11.10
2023-02-09T14:03:58.565Z,10.15
2023-02-09T14:06:01.908Z,8.40
2023-02-09T14:08:03.767Z,9.48
2023-02-09T14:10:16.991Z,11.35
2023-02-09T14:12:42.363Z,11.07
2023-02-09T14:15:09.531Z,7.32
2023-02-09T14:17:24.419Z,10.93
2023-02-09T14:19:30.776Z,12.68
2023-02-09T14:21:37.491Z,10.18
2023-02-09T14:23:50.202Z,10.93
2023-02-09T14:26:15.209Z,10.52
2023-02-09T14:28:16.855Z,10.77
2023-02-09T14:30:32.112Z,16.63
2023-02-09T14:32:40.451Z,7.93
2023-02-09T14:34:42.859Z,8.32
2023-02-09T14:36:54.999Z,9.63
2023-02-09T14:39:16.882Z,7.68
2023-02-09T14:41:28.152Z,10.45
2023-02-09T14:43:29.917Z,7.18
2023-02-09T14:45:37.637Z,12.40
2023-02-09T14:47:44.080Z,13.95
2023-02-09T14:49:45.663Z,16.15
2023-02-09T14:51:48.746Z,12.15
2023-02-09T14:53:50.536Z,18.55
2023-02-09T14:55:54.242Z,23.45
2023-02-09T14:57:55.952Z,16.48
2023-02-09T14:59:57.579Z,14.05
2023-02-09T15:01:59.236Z,24.30
2023-02-09T15:04:00.815Z,15.80
2023-02-09T15:06:04.155Z,14.15
2023-02-09T15:08:09.049Z,19.15
2023-02-09T15:10:31.969Z,12.57
2023-02-09T15:12:33.684Z,11.43
2023-02-09T15:14:42.494Z,14.07
2023-02-09T15:16:44.030Z,12.60
2023-02-09T15:18:45.689Z,12.23
2023-02-09T15:20:47.447Z,15.57
2023-02-09T15:22:49.118Z,11.88
2023-02-09T15:24:54.334Z,14.25
2023-02-09T15:26:56.328Z,13.25
2023-02-09T15:28:57.912Z,11.73
2023-02-09T15:30:59.943Z,14.77
2023-02-09T15:33:02.088Z,17.42
2023-02-09T15:35:05.192Z,14.77
2023-02-09T15:37:06.937Z,14.23
2023-02-09T15:39:19.203Z,14.52
2023-02-09T15:41:44.080Z,13.13
2023-02-09T15:44:03.957Z,15.98
2023-02-09T15:46:06.459Z,18.17
2023-02-09T15:48:09.109Z,14.48
2023-02-09T15:50:10.737Z,15.48
2023-02-09T15:52:13.513Z,14.25
2023-02-09T15:54:18.844Z,13.95
2023-02-09T15:56:20.651Z,17.55
2023-02-09T15:58:29.086Z,16.40
2023-02-09T16:00:31.432Z,17.75
2023-02-09T16:02:33.116Z,15.88
2023-02-09T16:04:34.755Z,12.05
2023-02-09T16:06:36.596Z,13.55
2023-02-09T16:08:38.726Z,15.43
2023-02-09T16:10:40.398Z,17.17
2023-02-09T16:12:42.197Z,16.20
2023-02-09T16:14:43.921Z,14.13
2023-02-09T16:16:45.962Z,16.30
2023-02-09T16:18:47.741Z,13.20
2023-02-09T16:20:50.904Z,15.98
2023-02-09T16:22:52.893Z,15.43
2023-02-09T16:24:54.654Z,19.90
2023-02-09T16:26:58.655Z,14.65
2023-02-09T16:29:00.788Z,13.90
2023-02-09T16:31:02.535Z,14.35
2023-02-09T16:33:04.689Z,15.25
2023-02-09T16:35:16.388Z,18.00
2023-02-09T16:37:25.184Z,22.52
2023-02-09T16:39:26.759Z,19.08
2023-02-09T16:41:47.141Z,19.80
2023-02-09T16:43:48.704Z,17.02
2023-02-09T16:46:02.703Z,15.85
2023-02-09T16:48:05.238Z,17.75
2023-02-09T16:50:46.832Z,19.38
2023-02-09T16:52:50.220Z,18.40
2023-02-09T16:55:02.018Z,17.05
2023-02-09T16:57:04.423Z,18.02
2023-02-09T16:59:06.071Z,17.08
2023-02-09T17:01:16.985Z,16.85
2023-02-09T17:03:22.358Z,20.25
2023-02-09T17:05:29.705Z,17.23
2023-02-09T17:07:45.352Z,15.73
2023-02-09T17:09:57.216Z,21.83
2023-02-09T17:11:58.773Z,21.48
2023-02-09T17:14:00.436Z,20.27
2023-02-09T17:16:04.359Z,16.90
2023-02-09T17:20:10.471Z,18.50
2023-02-09T17:24:15.898Z,40.75
2023-02-09T17:26:18.469Z,21.55
2023-02-09T17:28:20.199Z,27.27
2023-02-09T17:30:21.844Z,22.63
2023-02-09T17:32:23.556Z,18.95
2023-02-09T17:34:28.454Z,21.42
2023-02-09T17:36:31.012Z,19.63
2023-02-09T17:38:35.872Z,19.02
2023-02-09T17:40:37.471Z,20.77
2023-02-09T17:42:39.154Z,21.58
2023-02-09T17:44:46.330Z,19.85
2023-02-09T17:46:48.664Z,19.00
2023-02-09T17:48:50.386Z,22.60
2023-02-09T17:50:53.002Z,24.50
2023-02-09T17:52:54.766Z,21.08
2023-02-09T17:54:56.409Z,25.25
2023-02-09T17:56:58.130Z,24.23
2023-02-09T17:59:03.089Z,23.67
2023-02-09T18:01:21.668Z,23.15
2023-02-09T18:03:26.031Z,28.23
2023-02-09T18:05:28.405Z,29.27
2023-02-09T18:07:30.299Z,25.10
2023-02-09T18:09:31.919Z,26.65
2023-02-09T18:12:03.028Z,26.65
2023-02-09T18:14:04.916Z,26.27
2023-02-09T18:16:07.692Z,25.63
2023-02-09T18:18:09.802Z,23.23
2023-02-09T18:20:16.447Z,26.75
2023-02-09T18:22:19.908Z,24.30
2023-02-09T18:24:22.980Z,21.90
2023-02-09T18:26:24.623Z,23.05
2023-02-09T18:28:26.274Z,22.27
2023-02-09T18:30:30.844Z,21.67
2023-02-09T18:32:32.495Z,30.25
2023-02-09T18:34:35.927Z,24.25
2023-02-09T18:36:37.599Z,25.30
2023-02-09T18:38:39.326Z,17.98
2023-02-09T18:40:41.003Z,25.90
2023-02-09T18:42:43.358Z,21.38
2023-02-09T18:44:45.057Z,26.20
2023-02-09T18:46:46.687Z,20.70
2023-02-09T18:48:48.304Z,21.52
2023-02-09T18:50:49.953Z,22.52
2023-02-09T18:52:54.152Z,20.92
2023-02-09T18:54:55.787Z,21.42
2023-02-09T18:56:57.445Z,18.23
2023-02-09T18:58:59.080Z,16.95
2023-02-09T19:01:00.688Z,16.63
2023-02-09T19:03:02.359Z,17.52
2023-02-09T19:05:04.609Z,20.15
2023-02-09T19:07:09.469Z,21.85
2023-02-09T19:09:11.236Z,20.48
2023-02-09T19:11:14.208Z,28.90
2023-02-09T19:13:15.819Z,44.43
2023-02-09T19:15:18.745Z,43.25
2023-02-09T19:17:21.305Z,45.67
2023-02-09T19:19:23.139Z,40.13
2023-02-09T19:21:24.872Z,36.17
2023-02-09T19:23:26.463Z,37.60
2023-02-09T19:25:28.778Z,63.35
2023-02-09T19:27:30.493Z,63.65
2023-02-09T19:29:33.246Z,70.97
2023-02-09T19:31:34.889Z,73.55
2023-02-09T19:33:36.499Z,65.15
2023-02-09T19:35:38.122Z,57.88
2023-02-09T19:37:42.028Z,61.42
2023-02-09T19:41:54.545Z,61.13
2023-02-09T19:43:57.241Z,55.22
2023-02-09T19:45:59.333Z,52.80
2023-02-09T19:48:00.972Z,54.80
2023-02-09T19:50:02.661Z,55.47
2023-02-09T19:52:05.023Z,48.35
2023-02-09T19:54:06.682Z,60.85
2023-02-09T19:56:15.886Z,56.58
2023-02-09T19:58:17.554Z,54.55
2023-02-09T20:00:19.396Z,62.92
2023-02-09T20:02:21.015Z,47.97
2023-02-09T20:04:22.953Z,52.08
2023-02-09T20:06:24.740Z,51.90
2023-02-09T20:08:26.592Z,50.17
2023-02-09T20:10:28.265Z,51.70
2023-02-09T20:12:29.813Z,49.70
2023-02-09T20:14:33.520Z,54.35
2023-02-09T20:16:35.822Z,48.58
2023-02-09T20:18:37.872Z,53.42
2023-02-09T20:20:42.955Z,50.70
2023-02-09T20:22:44.793Z,55.35
2023-02-09T20:24:46.536Z,57.25
2023-02-09T20:26:48.267Z,56.83
2023-02-09T20:28:50.558Z,55.33
2023-02-09T20:30:52.181Z,52.90
2023-02-09T20:32:53.830Z,54.60
2023-02-09T20:34:55.664Z,53.90
2023-02-09T20:36:57.649Z,53.53
2023-02-09T20:38:59.251Z,53.80
2023-02-09T20:41:00.923Z,51.03
2023-02-09T20:43:21.022Z,50.95
2023-02-09T20:45:41.405Z,54.35
2023-02-09T20:47:43.110Z,56.65
2023-02-09T20:49:44.885Z,51.28
2023-02-09T20:51:46.910Z,50.92
2023-02-09T20:53:48.501Z,57.67
2023-02-09T20:55:50.103Z,53.10
2023-02-09T20:57:51.706Z,50.30
2023-02-09T20:59:53.359Z,50.60
2023-02-09T21:01:55.035Z,48.47
2023-02-09T21:03:58.851Z,49.47
2023-02-09T21:06:00.515Z,47.10
2023-02-09T21:08:04.611Z,47.95
2023-02-09T21:10:07.164Z,45.85
2023-02-09T21:12:08.750Z,48.35
2023-02-09T21:14:21.637Z,47.13
2023-02-09T21:16:32.487Z,48.15
2023-02-09T21:18:36.094Z,51.33
2023-02-09T21:20:38.124Z,46.75
2023-02-09T21:22:39.779Z,55.47
2023-02-09T21:24:41.979Z,48.80
2023-02-09T21:26:43.878Z,48.13
2023-02-09T21:28:48.309Z,41.42
2023-02-09T21:30:50.237Z,54.10
2023-02-09T21:32:51.948Z,54.42
2023-02-09T21:34:53.544Z,51.30
2023-02-09T21:36:55.136Z,47.88
2023-02-09T21:38:56.776Z,56.45
2023-02-09T21:40:58.421Z,45.08
2023-02-09T21:43:00.306Z,43.95
2023-02-09T21:45:01.962Z,48.13
2023-02-09T21:47:03.678Z,51.28
2023-02-09T21:49:05.339Z,52.00
2023-02-09T21:51:07.044Z,44.28
2023-02-09T21:53:08.666Z,54.72
2023-02-09T21:55:10.415Z,51.53
2023-02-09T21:57:12.008Z,54.35
2023-02-09T21:59:13.585Z,52.95
2023-02-09T22:01:15.199Z,51.78
2023-02-09T22:03:16.869Z,57.88
2023-02-09T22:05:18.534Z,59.08
2023-02-09T22:07:20.121Z,56.78
2023-02-09T22:09:23.157Z,56.83
2023-02-09T22:11:24.738Z,68.13
2023-02-09T22:13:26.415Z,60.45
2023-02-09T22:15:28.071Z,56.95
2023-02-09T22:17:29.770Z,56.80
2023-02-09T22:19:31.432Z,61.25
2023-02-09T22:21:33.081Z,56.33
2023-02-09T22:23:34.907Z,58.58
2023-02-09T22:25:36.657Z,53.25
2023-02-09T22:27:38.305Z,53.90
2023-02-09T22:29:39.965Z,51.97
2023-02-09T22:31:42.168Z,54.30
2023-02-09T22:33:44.037Z,54.05
2023-02-09T22:35:46.011Z,55.55
2023-02-09T22:37:47.777Z,49.10
2023-02-09T22:39:49.430Z,48.45
2023-02-09T22:41:51.037Z,50.92
2023-02-09T22:43:54.809Z,44.05
2023-02-09T22:45:57.029Z,47.97
2023-02-09T22:47:58.671Z,48.28
2023-02-09T22:50:00.390Z,49.92
2023-02-09T22:52:01.982Z,51.20
2023-02-09T22:54:04.773Z,46.53
2023-02-09T22:56:07.982Z,53.20
2023-02-09T22:58:09.609Z,53.63
2023-02-09T23:00:12.311Z,59.17
2023-02-09T23:02:13.900Z,51.08
2023-02-09T23:04:15.687Z,57.70
2023-02-09T23:06:20.245Z,54.15
2023-02-09T23:08:23.117Z,58.17
2023-02-09T23:10:25.106Z,56.17
2023-02-09T23:12:26.721Z,61.33
2023-02-09T23:14:28.408Z,59.03
2023-02-09T23:16:30.693Z,53.25
2023-02-09T23:18:32.265Z,56.47
2023-02-09T23:20:33.952Z,58.30
2023-02-09T23:22:35.572Z,54.20
2023-02-09T23:24:37.224Z,54.10
2023-02-09T23:26:39.255Z,59.20
2023-02-09T23:28:41.005Z,58.55
2023-02-09T23:30:42.687Z,61.85
2023-02-09T23:32:44.379Z,55.47
2023-02-09T23:34:46.000Z,59.65
2023-02-09T23:36:47.731Z,64.60
2023-02-09T23:38:53.874Z,60.15
2023-02-09T23:40:55.479Z,56.35
2023-02-09T23:42:57.122Z,60.03
2023-02-09T23:44:58.910Z,56.10
2023-02-09T23:47:00.601Z,61.13
2023-02-09T23:49:02.237Z,60.97
2023-02-09T23:51:15.546Z,56.20
2023-02-09T23:53:17.178Z,55.83
2023-02-09T23:55:18.932Z,57.45
2023-02-09T23:57:23.444Z,54.05
2023-02-09T23:59:25.057Z,52.92
